Terminal Aerodrome Forecast
Issued by NWS

Home | Current Version | Previous Version | Graphics & Text | Print | Product List | Glossary On
Versions: 1 2 3 4 5 6 7 8 9 10 11 12 13 14 15
000
FTUS43 KICT 142326
TAFRSL
TAF
KRSL 142326Z 1500/1524 08004KT 6SM -FZRA OVC025
     FM150300 10006KT 5SM -FZRA OVC020
     FM150400 10005KT 3SM -FZRA OVC015
     FM150500 11005KT 2SM FZRA OVC010
     FM150900 08004KT 1 1/2SM FZRA OVC008
     FM151200 07005KT 1 1/2SM FZRA OVC003=

USA.gov is the U.S. government's official web portal to all federal, state and local government web resources and services.